Time;durP1;ratioP1;P1;durP2;ratioP2;P2;SDS_P1;SDS_P2;PMS_P1;PMS_P2;Temp;Humidity;BMP_temperature;BMP_pressure;BME280_temperature;BME280_humidity;BME280_pressure;Samples;Min_cycle;Max_cycle;Signal;HPM_P1;HPM_P2
2021/06/18 00:00:03;;;;;;;1.33;1.27;;;28.60;42.20;;;;;;5082811;28;20814;-26
2021/06/18 00:02:34;;;;;;;2.20;1.10;;;28.50;42.10;;;;;;5081992;28;20815;-25
2021/06/18 00:05:05;;;;;;;1.20;1.03;;;28.50;44.00;;;;;;5082677;28;20455;-26
2021/06/18 00:07:36;;;;;;;1.83;1.20;;;28.40;42.00;;;;;;5082769;28;20435;-24
2021/06/18 00:10:09;;;;;;;2.30;1.23;;;28.30;44.20;;;;;;5081012;28;20902;-26
2021/06/18 00:12:42;;;;;;;1.37;1.20;;;28.40;43.10;;;;;;5082153;28;20487;-25
2021/06/18 00:15:15;;;;;;;1.17;1.10;;;28.30;43.50;;;;;;5082374;28;20510;-29
2021/06/18 00:17:46;;;;;;;1.97;1.20;;;28.30;43.90;;;;;;5082973;28;20446;-25
2021/06/18 00:20:17;;;;;;;1.37;1.30;;;28.40;45.30;;;;;;5081590;28;20486;-23
2021/06/18 00:22:49;;;;;;;1.20;1.10;;;28.30;47.20;;;;;;5083278;28;20485;-24
2021/06/18 00:25:20;;;;;;;1.93;1.30;;;28.20;44.50;;;;;;5081529;28;20534;-26
2021/06/18 00:27:56;;;;;;;2.03;1.30;;;28.10;44.80;;;;;;5082880;28;20498;-23
2021/06/18 00:30:27;;;;;;;1.57;1.27;;;28.20;45.00;;;;;;5082024;28;20450;-24
2021/06/18 00:32:58;;;;;;;1.73;1.60;;;28.10;45.60;;;;;;5081119;28;20515;-24
2021/06/18 00:35:32;;;;;;;1.63;1.53;;;28.00;45.90;;;;;;5081563;28;20467;-24
2021/06/18 00:38:03;;;;;;;1.37;1.27;;;27.80;45.00;;;;;;5082591;28;20445;-23
2021/06/18 00:40:35;;;;;;;1.30;1.23;;;27.70;46.20;;;;;;5080335;28;20503;-25
2021/06/18 00:43:07;;;;;;;1.40;1.30;;;27.80;47.20;;;;;;5081589;28;20470;-23
2021/06/18 00:45:38;;;;;;;1.33;1.23;;;27.80;46.20;;;;;;5082514;28;20488;-24
2021/06/18 00:48:10;;;;;;;1.57;1.47;;;27.60;45.70;;;;;;5082100;28;20482;-24
2021/06/18 00:50:44;;;;;;;1.40;1.30;;;27.60;46.30;;;;;;5080724;28;20449;-25
2021/06/18 00:53:16;;;;;;;2.30;1.40;;;27.60;45.80;;;;;;5081999;28;20532;-22
2021/06/18 00:55:49;;;;;;;1.43;1.33;;;27.50;47.50;;;;;;5079189;28;20462;-24
2021/06/18 00:58:22;;;;;;;2.37;1.30;;;27.50;47.00;;;;;;5082471;28;20480;-27
2021/06/18 01:00:53;;;;;;;1.40;1.20;;;27.50;46.30;;;;;;5071488;28;20509;-25
2021/06/18 01:03:24;;;;;;;1.67;1.20;;;27.50;43.10;;;;;;5081565;28;20471;-24
2021/06/18 01:05:55;;;;;;;1.27;1.17;;;27.40;44.20;;;;;;5080390;28;20483;-28
2021/06/18 01:08:30;;;;;;;1.20;1.20;;;27.30;45.50;;;;;;5081933;28;20447;-28
2021/06/18 01:11:07;;;;;;;2.50;1.47;;;27.20;45.60;;;;;;5079713;28;20517;-23
2021/06/18 01:13:50;;;;;;;1.70;1.60;;;27.20;45.30;;;;;;5075222;28;20443;-26
2021/06/18 01:16:36;;;;;;;5.20;4.70;;;27.20;47.80;;;;;;5081478;28;20452;-23
2021/06/18 01:19:13;;;;;;;2.33;1.83;;;27.10;48.50;;;;;;5080277;28;20452;-26
2021/06/18 01:21:46;;;;;;;1.40;1.30;;;27.00;48.30;;;;;;5074944;28;20475;-22
2021/06/18 01:24:46;;;;;;;1.83;1.67;;;27.00;48.80;;;;;;5075980;28;20488;-25
2021/06/18 01:27:41;;;;;;;1.70;1.60;;;26.90;49.00;;;;;;5076781;28;20466;-25
2021/06/18 01:30:15;;;;;;;1.60;1.50;;;26.80;49.20;;;;;;5076162;28;20484;-22
2021/06/18 01:32:54;;;;;;;1.97;1.87;;;26.70;50.30;;;;;;5080522;28;20452;-23
2021/06/18 01:35:29;;;;;;;1.80;1.70;;;26.80;51.30;;;;;;5079743;28;20465;-27
2021/06/18 01:38:03;;;;;;;1.53;1.43;;;26.80;52.30;;;;;;5080996;28;20455;-25
2021/06/18 01:40:35;;;;;;;2.40;2.30;;;26.70;53.20;;;;;;5079476;28;20479;-26
2021/06/18 01:43:09;;;;;;;14.30;12.93;;;26.70;53.60;;;;;;5080697;28;20456;-25
2021/06/18 01:45:44;;;;;;;3.30;3.00;;;26.60;54.20;;;;;;5080569;28;20959;-25
2021/06/18 01:48:20;;;;;;;64.17;59.67;;;26.40;55.10;;;;;;5079269;28;20482;-25
2021/06/18 01:51:13;;;;;;;44.50;40.33;;;26.40;54.80;;;;;;5074075;28;20501;-23
2021/06/18 01:53:46;;;;;;;4.00;3.70;;;26.40;55.30;;;;;;5080986;28;20494;-27
2021/06/18 01:56:21;;;;;;;3.40;3.20;;;26.30;56.70;;;;;;5081184;28;20456;-25
2021/06/18 01:58:57;;;;;;;2.70;2.50;;;26.30;56.70;;;;;;5076969;28;20446;-24
2021/06/18 02:01:35;;;;;;;2.20;2.10;;;26.30;57.60;;;;;;5079755;28;20493;-24
2021/06/18 02:04:07;;;;;;;3.33;2.37;;;26.20;58.20;;;;;;5076670;28;20455;-23
2021/06/18 02:06:41;;;;;;;2.57;2.37;;;26.10;57.90;;;;;;5082671;28;20509;-24
2021/06/18 02:09:16;;;;;;;1.80;1.70;;;26.10;58.20;;;;;;5084316;28;20535;-27
2021/06/18 02:11:48;;;;;;;2.20;1.90;;;26.00;59.00;;;;;;5083925;28;20450;-25
2021/06/18 02:14:21;;;;;;;3.77;1.90;;;25.90;58.60;;;;;;5084397;28;20494;-26
2021/06/18 02:16:56;;;;;;;3.37;2.10;;;25.80;58.60;;;;;;5084864;28;20473;-23
2021/06/18 02:19:28;;;;;;;2.20;2.00;;;25.80;59.00;;;;;;5080902;28;20457;-30
2021/06/18 02:21:59;;;;;;;2.50;2.03;;;25.70;59.70;;;;;;5078702;28;20448;-25
2021/06/18 02:24:32;;;;;;;2.03;1.93;;;25.60;59.70;;;;;;5083453;28;20455;-25
2021/06/18 02:27:04;;;;;;;2.20;2.00;;;25.60;61.30;;;;;;5084462;28;20496;-25
2021/06/18 02:29:36;;;;;;;2.03;1.93;;;25.50;61.80;;;;;;5083271;28;20866;-23
2021/06/18 02:32:12;;;;;;;1.90;1.80;;;25.50;63.10;;;;;;5084657;28;20467;-24
2021/06/18 02:34:43;;;;;;;2.30;2.10;;;25.40;64.30;;;;;;5082564;28;20940;-24
2021/06/18 02:37:14;;;;;;;3.27;2.00;;;25.30;64.80;;;;;;5084873;28;20554;-24
2021/06/18 02:39:47;;;;;;;1.97;1.87;;;25.30;65.60;;;;;;5083287;28;20466;-23
2021/06/18 02:42:18;;;;;;;2.10;1.90;;;25.20;67.30;;;;;;5084618;28;20451;-23
2021/06/18 02:44:49;;;;;;;2.20;2.00;;;25.10;67.00;;;;;;5084097;28;20483;-23
2021/06/18 02:47:27;;;;;;;2.40;2.20;;;25.00;67.50;;;;;;5084691;28;20479;-24
2021/06/18 02:50:05;;;;;;;7.47;2.07;;;24.90;68.50;;;;;;5084136;28;20570;-24
2021/06/18 02:52:43;;;;;;;2.53;2.30;;;24.90;67.20;;;;;;5084886;28;20443;-24
2021/06/18 02:55:18;;;;;;;2.50;2.30;;;24.80;68.10;;;;;;5082851;28;20454;-26
2021/06/18 02:57:56;;;;;;;3.07;2.13;;;24.80;68.40;;;;;;5085233;28;20496;-25
2021/06/18 03:00:29;;;;;;;2.07;1.97;;;24.60;68.70;;;;;;5080411;28;20487;-26
2021/06/18 03:03:03;;;;;;;1.90;1.70;;;24.60;69.10;;;;;;5084588;28;20456;-29
2021/06/18 03:05:35;;;;;;;3.37;1.97;;;24.60;68.70;;;;;;5083816;28;20476;-26
2021/06/18 03:08:10;;;;;;;2.20;2.10;;;24.50;68.40;;;;;;5084126;28;20418;-25
2021/06/18 03:10:43;;;;;;;4.10;1.70;;;24.50;69.70;;;;;;5082216;28;20520;-28
2021/06/18 03:13:17;;;;;;;4.20;2.10;;;24.40;68.50;;;;;;5083798;28;20451;-26
2021/06/18 03:15:50;;;;;;;1.90;1.70;;;24.30;68.80;;;;;;5077885;28;20443;-25
2021/06/18 03:18:25;;;;;;;2.57;2.17;;;24.20;69.40;;;;;;5082283;28;20456;-26
2021/06/18 03:20:59;;;;;;;2.07;1.90;;;24.10;70.30;;;;;;5083518;28;20482;-22
2021/06/18 03:23:33;;;;;;;2.10;2.00;;;24.00;71.20;;;;;;5078122;28;20605;-25
2021/06/18 03:26:06;;;;;;;2.13;1.97;;;24.00;71.10;;;;;;5081271;28;20488;-27
2021/06/18 03:28:38;;;;;;;3.00;2.10;;;24.00;71.60;;;;;;5081839;28;20443;-26
2021/06/18 03:31:10;;;;;;;1.93;1.83;;;23.80;72.90;;;;;;5084213;28;20447;-24
2021/06/18 03:33:44;;;;;;;1.90;1.70;;;23.70;73.50;;;;;;5083666;28;20451;-25
2021/06/18 03:36:20;;;;;;;2.00;1.90;;;23.70;72.30;;;;;;5083540;28;20447;-29
2021/06/18 03:38:52;;;;;;;3.30;2.23;;;23.70;72.80;;;;;;5076523;28;20514;-25
2021/06/18 03:41:24;;;;;;;6.70;2.30;;;23.60;73.30;;;;;;5082688;28;20654;-24
2021/06/18 03:43:55;;;;;;;2.13;1.70;;;23.50;72.80;;;;;;5081785;28;20463;-23
2021/06/18 03:46:29;;;;;;;3.50;2.10;;;23.40;73.70;;;;;;5083044;28;20440;-25
2021/06/18 03:49:02;;;;;;;3.23;1.90;;;23.40;73.90;;;;;;5082943;28;20455;-27
2021/06/18 03:51:33;;;;;;;2.87;1.83;;;23.20;74.00;;;;;;5075383;28;20475;-27
2021/06/18 03:54:06;;;;;;;1.73;1.63;;;23.20;75.00;;;;;;5082229;28;20458;-24
2021/06/18 03:56:39;;;;;;;2.83;2.13;;;23.10;74.80;;;;;;5070690;28;20516;-25
2021/06/18 03:59:14;;;;;;;2.23;2.10;;;23.00;75.00;;;;;;5083578;28;20890;-28
2021/06/18 04:01:47;;;;;;;2.40;1.63;;;22.90;75.90;;;;;;5083950;28;20871;-25
2021/06/18 04:04:21;;;;;;;1.63;1.40;;;22.90;75.80;;;;;;5080760;28;20444;-22
2021/06/18 04:06:52;;;;;;;3.33;1.73;;;22.80;76.00;;;;;;5079433;28;20563;-25
2021/06/18 04:09:24;;;;;;;2.13;1.70;;;22.70;77.00;;;;;;5077064;28;20458;-23
2021/06/18 04:11:55;;;;;;;2.07;1.90;;;22.70;76.50;;;;;;5082318;28;20438;-27
2021/06/18 04:14:30;;;;;;;2.67;1.97;;;22.50;76.90;;;;;;5079981;28;20437;-24
2021/06/18 04:17:01;;;;;;;2.97;1.83;;;22.50;76.90;;;;;;5080736;28;20439;-23
2021/06/18 04:19:34;;;;;;;2.73;1.83;;;22.40;77.40;;;;;;5080705;28;20548;-23
2021/06/18 04:22:07;;;;;;;2.80;2.07;;;22.30;77.30;;;;;;5081144;28;20481;-23
2021/06/18 04:24:38;;;;;;;2.03;1.63;;;22.20;78.20;;;;;;5080989;28;20455;-25
2021/06/18 04:27:09;;;;;;;2.13;1.90;;;22.20;77.90;;;;;;5080022;28;20480;-22
2021/06/18 04:29:40;;;;;;;1.77;1.67;;;22.10;78.00;;;;;;5078500;28;20455;-23
2021/06/18 04:32:11;;;;;;;3.07;1.93;;;22.00;78.50;;;;;;5072361;28;20458;-26
2021/06/18 04:34:44;;;;;;;1.67;1.50;;;22.00;78.20;;;;;;5082402;28;20447;-25
2021/06/18 04:37:15;;;;;;;1.80;1.70;;;21.90;79.10;;;;;;5083206;28;20586;-24
2021/06/18 04:39:46;;;;;;;2.13;2.03;;;21.80;79.30;;;;;;5074244;28;20421;-24
2021/06/18 04:42:16;;;;;;;2.67;1.90;;;21.80;79.40;;;;;;5080312;28;20487;-27
2021/06/18 04:44:47;;;;;;;2.33;2.13;;;21.70;80.10;;;;;;5081478;28;20896;-23
2021/06/18 04:47:20;;;;;;;2.10;2.00;;;21.70;80.50;;;;;;5075069;28;20462;-25
2021/06/18 04:49:52;;;;;;;3.00;2.00;;;21.60;81.00;;;;;;5072680;28;20451;-25
2021/06/18 04:52:23;;;;;;;1.77;1.67;;;21.50;81.60;;;;;;5082916;28;20478;-23
2021/06/18 04:54:57;;;;;;;2.50;1.60;;;21.40;81.90;;;;;;5080489;28;20493;-24
2021/06/18 04:57:28;;;;;;;2.20;1.83;;;21.40;82.20;;;;;;5078148;28;20451;-25
2021/06/18 05:00:00;;;;;;;3.00;1.80;;;21.40;82.60;;;;;;5078887;28;20403;-24
2021/06/18 05:02:31;;;;;;;1.97;1.73;;;21.30;83.30;;;;;;5075627;28;20574;-25
2021/06/18 05:05:04;;;;;;;5.27;1.80;;;21.30;82.70;;;;;;5077475;28;20434;-23
2021/06/18 05:07:35;;;;;;;3.20;1.80;;;21.20;83.70;;;;;;5075682;28;20427;-23
2021/06/18 05:10:07;;;;;;;2.87;1.83;;;21.10;83.70;;;;;;5080339;28;20490;-23
2021/06/18 05:12:39;;;;;;;2.30;2.10;;;21.00;84.60;;;;;;5082521;28;20436;-24
2021/06/18 05:15:11;;;;;;;3.23;1.90;;;20.90;84.90;;;;;;5074037;28;20444;-24
2021/06/18 05:17:42;;;;;;;3.07;1.70;;;20.90;85.30;;;;;;5082353;28;20440;-25
2021/06/18 05:20:16;;;;;;;1.70;1.60;;;20.80;85.50;;;;;;5080719;28;20447;-23
2021/06/18 05:22:48;;;;;;;1.90;1.77;;;20.80;86.20;;;;;;5081885;28;20548;-23
2021/06/18 05:25:19;;;;;;;2.63;1.47;;;20.70;86.60;;;;;;5079791;28;20933;-24
2021/06/18 05:27:50;;;;;;;1.90;1.70;;;20.50;87.70;;;;;;5081518;28;20426;-24
2021/06/18 05:30:22;;;;;;;3.20;1.73;;;20.40;87.80;;;;;;5078942;28;20436;-22
2021/06/18 05:32:53;;;;;;;1.97;1.77;;;20.30;87.70;;;;;;5082241;28;20464;-23
2021/06/18 05:35:26;;;;;;;3.30;1.90;;;20.30;88.50;;;;;;5080207;28;20539;-23
2021/06/18 05:37:57;;;;;;;1.90;1.23;;;20.20;89.00;;;;;;5065935;28;20506;-22
2021/06/18 05:40:28;;;;;;;1.83;1.73;;;20.20;88.50;;;;;;5079490;28;20996;-24
2021/06/18 05:42:59;;;;;;;1.63;1.40;;;20.10;87.90;;;;;;5084621;28;20477;-24
2021/06/18 05:45:33;;;;;;;1.70;1.60;;;20.00;89.70;;;;;;5079609;28;20490;-26
2021/06/18 05:48:04;;;;;;;1.70;1.60;;;19.90;89.60;;;;;;5085462;28;20453;-23
2021/06/18 05:50:37;;;;;;;1.73;1.63;;;19.80;89.70;;;;;;5084019;28;20901;-24
2021/06/18 05:53:08;;;;;;;1.67;1.57;;;19.80;88.40;;;;;;5085771;28;20539;-24
2021/06/18 05:55:39;;;;;;;2.07;1.97;;;19.80;88.00;;;;;;5084061;28;20921;-23
2021/06/18 05:58:10;;;;;;;2.60;2.07;;;19.70;88.20;;;;;;5083039;28;20478;-25
2021/06/18 06:00:41;;;;;;;1.77;1.30;;;19.60;88.70;;;;;;5085963;28;20491;-24
2021/06/18 06:03:13;;;;;;;2.03;1.67;;;19.50;88.30;;;;;;5085107;28;20476;-22
2021/06/18 06:05:46;;;;;;;1.93;1.43;;;19.40;88.70;;;;;;5071571;28;20523;-23
2021/06/18 06:08:17;;;;;;;1.60;1.50;;;19.40;88.50;;;;;;5085254;28;20459;-24
2021/06/18 06:10:48;;;;;;;2.13;1.57;;;19.40;89.40;;;;;;5084620;28;20430;-24
2021/06/18 06:13:21;;;;;;;1.80;1.70;;;19.30;90.10;;;;;;5083934;28;20861;-24
2021/06/18 06:15:52;;;;;;;2.30;1.23;;;19.20;90.20;;;;;;5078933;28;20903;-26
2021/06/18 06:18:23;;;;;;;1.70;1.60;;;19.10;90.60;;;;;;5084035;28;20449;-24
2021/06/18 06:20:55;;;;;;;2.20;1.70;;;19.00;91.30;;;;;;5078749;28;20451;-25
2021/06/18 06:23:26;;;;;;;3.00;1.40;;;18.90;91.20;;;;;;5085157;28;20492;-22
2021/06/18 06:25:57;;;;;;;3.60;1.50;;;19.00;91.10;;;;;;5067338;28;20462;-24
2021/06/18 06:28:29;;;;;;;1.80;1.70;;;18.90;91.90;;;;;;5084690;28;20432;-24
2021/06/18 06:31:00;;;;;;;2.50;1.40;;;18.70;92.00;;;;;;5084608;28;20421;-23
2021/06/18 06:33:31;;;;;;;2.10;1.47;;;18.70;93.00;;;;;;5084428;28;20429;-26
2021/06/18 06:36:03;;;;;;;1.37;1.27;;;18.60;93.20;;;;;;5084590;28;20447;-22
2021/06/18 06:38:34;;;;;;;1.67;1.57;;;18.50;93.60;;;;;;5084552;28;20426;-25
2021/06/18 06:41:05;;;;;;;2.20;1.20;;;18.50;95.20;;;;;;5083417;28;20465;-24
2021/06/18 06:43:36;;;;;;;2.20;1.77;;;18.40;95.00;;;;;;5082524;28;20807;-22
2021/06/18 06:46:07;;;;;;;1.77;1.67;;;18.30;94.80;;;;;;5084469;28;20433;-25
2021/06/18 06:48:39;;;;;;;3.90;1.63;;;18.30;95.80;;;;;;5082071;28;20578;-26
2021/06/18 06:51:12;;;;;;;1.70;1.60;;;18.30;95.80;;;;;;5077992;28;20451;-28
2021/06/18 06:53:43;;;;;;;2.90;1.60;;;18.20;96.10;;;;;;5080441;28;20514;-22
2021/06/18 06:56:15;;;;;;;1.63;1.53;;;18.20;96.30;;;;;;5081463;28;20486;-24
2021/06/18 06:58:47;;;;;;;2.57;1.47;;;18.10;96.40;;;;;;5083830;28;20799;-24
2021/06/18 07:01:18;;;;;;;1.93;1.70;;;18.10;97.10;;;;;;5083787;28;20484;-23
2021/06/18 07:03:49;;;;;;;1.87;1.67;;;18.00;96.60;;;;;;5082868;28;20504;-23
2021/06/18 07:06:22;;;;;;;1.77;1.53;;;18.00;97.40;;;;;;5079360;28;20432;-23
2021/06/18 07:08:53;;;;;;;1.70;1.60;;;18.00;98.30;;;;;;5078098;28;20485;-24
2021/06/18 07:11:24;;;;;;;1.67;1.57;;;17.90;97.10;;;;;;5083078;28;20456;-22
2021/06/18 07:13:55;;;;;;;1.37;1.30;;;17.90;97.10;;;;;;5081793;28;20495;-23
2021/06/18 07:16:27;;;;;;;3.43;1.40;;;17.90;96.10;;;;;;5083260;28;20439;-24
2021/06/18 07:18:58;;;;;;;1.10;1.00;;;17.80;95.10;;;;;;5081647;28;20459;-21
2021/06/18 07:21:32;;;;;;;1.43;1.33;;;17.80;95.70;;;;;;5071336;28;20482;-26
2021/06/18 07:24:04;;;;;;;3.20;1.47;;;17.80;95.30;;;;;;5080542;28;20563;-22
2021/06/18 07:26:35;;;;;;;2.30;1.10;;;17.70;95.30;;;;;;5082806;28;20462;-25
2021/06/18 07:29:06;;;;;;;1.13;1.10;;;17.70;95.10;;;;;;5082715;28;20440;-29
2021/06/18 07:31:37;;;;;;;1.37;1.00;;;17.70;95.80;;;;;;5083395;28;20491;-22
2021/06/18 07:34:07;;;;;;;1.27;1.20;;;17.60;95.60;;;;;;5081933;28;20465;-26
2021/06/18 07:36:40;;;;;;;1.30;1.13;;;17.50;96.10;;;;;;5082351;28;20896;-22
2021/06/18 07:39:11;;;;;;;1.30;1.20;;;17.50;96.30;;;;;;5080639;28;20452;-24
2021/06/18 07:41:42;;;;;;;1.43;1.33;;;17.40;96.10;;;;;;5082123;28;20444;-28
2021/06/18 07:44:13;;;;;;;1.30;1.20;;;17.30;96.80;;;;;;5082774;28;20497;-25
2021/06/18 07:46:45;;;;;;;1.57;1.30;;;17.20;97.30;;;;;;5044060;28;1081851;-22
2021/06/18 07:49:16;;;;;;;1.73;1.30;;;17.10;97.70;;;;;;5082876;28;20209;-24
2021/06/18 07:51:50;;;;;;;1.53;1.40;;;17.20;97.50;;;;;;5079079;28;20422;-22
2021/06/18 07:54:22;;;;;;;1.57;1.20;;;17.10;98.30;;;;;;5082195;28;20458;-22
2021/06/18 07:56:53;;;;;;;1.37;1.27;;;17.00;98.20;;;;;;5083498;28;20511;-21
2021/06/18 07:59:24;;;;;;;1.33;1.23;;;17.00;98.20;;;;;;5082997;28;20434;-23
2021/06/18 08:01:55;;;;;;;2.67;1.70;;;17.00;97.50;;;;;;5082694;28;20447;-26
2021/06/18 08:04:46;;;;;;;1.47;1.33;;;16.90;97.90;;;;;;5080235;28;20450;-23
2021/06/18 08:07:18;;;;;;;1.80;1.70;;;16.80;98.20;;;;;;5083054;28;20620;-24
2021/06/18 08:09:49;;;;;;;1.57;1.40;;;16.80;98.00;;;;;;5081749;28;20479;-23
2021/06/18 08:12:21;;;;;;;1.50;1.37;;;16.80;97.60;;;;;;5067522;28;20451;-23
2021/06/18 08:14:53;;;;;;;1.37;1.10;;;16.70;98.10;;;;;;5081957;28;20443;-23
2021/06/18 08:17:24;;;;;;;1.63;1.50;;;16.70;98.20;;;;;;5076067;28;20422;-26
2021/06/18 08:19:55;;;;;;;2.03;1.20;;;16.60;98.80;;;;;;5077743;28;20472;-23
2021/06/18 08:22:28;;;;;;;1.30;1.20;;;16.60;98.50;;;;;;5082011;28;20418;-26
2021/06/18 08:25:00;;;;;;;1.47;1.37;;;16.60;98.90;;;;;;5081275;28;20483;-26
2021/06/18 08:27:31;;;;;;;1.70;1.60;;;16.50;98.30;;;;;;5069953;28;20475;-23
2021/06/18 08:30:02;;;;;;;3.40;1.50;;;16.40;98.60;;;;;;5077877;28;20452;-23
2021/06/18 08:32:50;;;;;;;1.63;1.30;;;16.40;99.10;;;;;;5082957;28;20432;-24
2021/06/18 08:35:22;;;;;;;1.33;1.20;;;16.40;98.70;;;;;;5082280;28;20447;-22
2021/06/18 08:37:55;;;;;;;1.33;1.23;;;16.30;99.30;;;;;;5082600;28;20542;-23
2021/06/18 08:40:29;;;;;;;1.30;1.30;;;16.30;98.80;;;;;;5078158;28;20521;-22
2021/06/18 08:43:00;;;;;;;1.50;1.40;;;16.30;99.00;;;;;;5081758;28;20535;-22
2021/06/18 08:45:32;;;;;;;1.40;1.30;;;16.30;98.00;;;;;;5082506;28;20455;-25
2021/06/18 08:48:04;;;;;;;1.60;1.10;;;16.30;97.60;;;;;;5082329;28;20474;-22
2021/06/18 08:50:35;;;;;;;1.10;1.10;;;16.20;97.60;;;;;;5076664;28;20558;-22
2021/06/18 08:53:10;;;;;;;1.10;1.10;;;16.20;98.30;;;;;;5079140;28;20673;-24
2021/06/18 08:55:41;;;;;;;1.67;1.50;;;16.20;97.80;;;;;;5081643;28;20494;-24
2021/06/18 08:58:12;;;;;;;0.93;0.93;;;16.10;97.70;;;;;;5081008;28;20530;-25
2021/06/18 09:00:44;;;;;;;2.80;1.30;;;16.20;97.40;;;;;;5082488;28;20439;-23
2021/06/18 09:03:37;;;;;;;3.47;1.10;;;16.20;96.90;;;;;;5081576;28;20463;-23
2021/06/18 09:06:42;;;;;;;1.20;1.13;;;16.20;96.80;;;;;;5081949;28;20495;-24
2021/06/18 09:09:22;;;;;;;2.47;1.33;;;16.10;96.90;;;;;;5037711;28;20476;-24
2021/06/18 09:11:55;;;;;;;1.30;1.20;;;16.10;96.70;;;;;;5039930;28;20449;-23
2021/06/18 09:14:31;;;;;;;1.23;1.03;;;16.10;96.50;;;;;;5032532;28;20512;-26
2021/06/18 09:17:17;;;;;;;0.97;0.90;;;16.10;95.90;;;;;;5027515;28;20438;-22
2021/06/18 09:19:51;;;;;;;3.27;1.37;;;16.10;96.50;;;;;;5038487;28;20568;-24
2021/06/18 09:22:24;;;;;;;1.13;1.13;;;16.10;95.90;;;;;;5035549;28;20445;-25
2021/06/18 09:25:09;;;;;;;1.90;1.27;;;16.10;95.60;;;;;;5037252;28;20663;-22
2021/06/18 09:27:42;;;;;;;1.23;0.80;;;16.00;95.60;;;;;;5031986;28;20476;-23
2021/06/18 09:30:20;;;;;;;2.20;1.13;;;16.00;95.60;;;;;;5038802;28;20453;-23
2021/06/18 09:32:59;;;;;;;1.33;1.20;;;16.00;95.40;;;;;;5038096;28;20521;-22
2021/06/18 09:35:31;;;;;;;1.53;1.43;;;15.80;95.70;;;;;;5030267;28;20567;-23
2021/06/18 09:38:03;;;;;;;2.73;1.30;;;15.80;95.40;;;;;;5039555;28;20488;-22
2021/06/18 09:40:36;;;;;;;1.10;0.80;;;15.80;95.30;;;;;;5065960;28;20998;-22
2021/06/18 09:43:12;;;;;;;0.90;0.90;;;15.80;95.10;;;;;;5081915;28;20767;-22
2021/06/18 09:45:44;;;;;;;1.53;0.90;;;15.80;94.90;;;;;;5073343;28;20769;-25
2021/06/18 09:48:18;;;;;;;0.77;0.77;;;15.80;95.60;;;;;;5080752;28;21010;-23
2021/06/18 09:50:50;;;;;;;0.90;0.83;;;15.80;95.00;;;;;;5080434;28;20471;-22
2021/06/18 09:53:22;;;;;;;1.27;0.73;;;15.70;95.10;;;;;;5072632;28;20833;-24
2021/06/18 09:56:07;;;;;;;1.50;1.07;;;15.70;95.30;;;;;;5080825;28;20479;-24
2021/06/18 09:58:39;;;;;;;2.23;1.07;;;15.70;95.60;;;;;;5081421;28;20475;-25
2021/06/18 10:01:18;;;;;;;1.40;1.30;;;15.60;95.70;;;;;;5081889;28;20505;-26
2021/06/18 10:04:00;;;;;;;1.63;1.17;;;15.50;95.60;;;;;;5081520;28;20494;-22
2021/06/18 10:06:32;;;;;;;1.23;1.10;;;15.50;95.90;;;;;;5082441;28;20903;-22
2021/06/18 10:09:04;;;;;;;1.33;1.23;;;15.40;95.90;;;;;;5078376;28;20477;-23
2021/06/18 10:11:40;;;;;;;1.20;1.00;;;15.50;95.70;;;;;;5072728;28;20443;-23
2021/06/18 10:14:11;;;;;;;1.13;1.10;;;15.50;95.70;;;;;;5080885;28;20943;-24
2021/06/18 10:16:42;;;;;;;2.73;1.10;;;15.40;96.30;;;;;;5081963;28;20471;-23
2021/06/18 10:19:14;;;;;;;1.63;1.27;;;15.30;96.90;;;;;;5080916;28;20439;-24
2021/06/18 10:21:53;;;;;;;1.23;1.13;;;15.20;96.80;;;;;;5077982;28;20463;-23
2021/06/18 10:24:33;;;;;;;1.20;0.90;;;15.20;96.90;;;;;;5074783;28;20536;-25
2021/06/18 10:27:10;;;;;;;1.20;1.10;;;15.10;97.40;;;;;;5081951;28;20454;-24
2021/06/18 10:29:43;;;;;;;3.13;1.40;;;15.10;98.00;;;;;;5084515;28;20835;-24
2021/06/18 10:32:35;;;;;;;1.43;1.33;;;15.00;98.20;;;;;;5080926;28;20499;-25
2021/06/18 10:35:08;;;;;;;1.20;1.07;;;14.90;99.60;;;;;;5083769;28;20451;-24
2021/06/18 10:37:49;;;;;;;1.50;1.40;;;14.90;99.50;;;;;;5085935;28;20996;-25
2021/06/18 10:40:20;;;;;;;2.27;1.20;;;14.80;99.90;;;;;;5082745;28;20447;-25
2021/06/18 10:43:13;;;;;;;1.30;1.20;;;14.80;99.90;;;;;;5084425;28;20550;-23
2021/06/18 10:46:09;;;;;;;1.40;1.07;;;14.60;99.90;;;;;;5082870;28;20832;-24
2021/06/18 10:49:00;;;;;;;2.10;1.43;;;14.60;99.90;;;;;;5083046;28;20522;-24
2021/06/18 10:51:42;;;;;;;1.40;1.30;;;14.50;99.90;;;;;;5084095;28;20451;-24
2021/06/18 10:54:25;;;;;;;1.30;1.20;;;14.40;99.90;;;;;;5082953;28;20451;-23
2021/06/18 10:57:01;;;;;;;1.10;1.00;;;14.30;99.90;;;;;;5085289;28;20459;-27
2021/06/18 10:59:38;;;;;;;1.33;1.23;;;14.30;99.90;;;;;;5084259;28;20501;-23
2021/06/18 11:02:35;;;;;;;2.33;1.47;;;14.30;99.90;;;;;;5084899;28;20503;-22
2021/06/18 11:05:09;;;;;;;2.60;1.73;;;14.20;99.90;;;;;;5084321;28;20570;-23
2021/06/18 11:07:41;;;;;;;1.30;1.20;;;14.20;99.90;;;;;;5080276;28;20451;-21
2021/06/18 11:10:14;;;;;;;1.53;1.43;;;14.10;99.90;;;;;;5082025;28;20507;-23
2021/06/18 11:12:48;;;;;;;1.30;1.20;;;14.10;99.90;;;;;;5076100;28;20451;-24
2021/06/18 11:15:42;;;;;;;1.70;1.60;;;14.10;99.90;;;;;;5078044;28;20459;-24
2021/06/18 11:18:16;;;;;;;1.90;1.30;;;14.00;99.90;;;;;;5083845;28;20539;-22
2021/06/18 11:20:53;;;;;;;1.67;1.50;;;14.00;99.90;;;;;;5070856;28;20481;-23
2021/06/18 11:23:35;;;;;;;2.47;1.10;;;14.00;99.90;;;;;;5081906;28;20543;-22
2021/06/18 11:26:12;;;;;;;2.17;1.40;;;14.00;99.90;;;;;;5083514;28;20487;-22
2021/06/18 11:28:53;;;;;;;1.30;1.20;;;14.00;99.90;;;;;;5083528;28;20451;-22
2021/06/18 11:31:40;;;;;;;1.50;1.33;;;14.00;99.90;;;;;;5084456;28;20531;-23
2021/06/18 11:34:27;;;;;;;1.80;1.17;;;14.00;99.90;;;;;;5083578;28;20473;-25
2021/06/18 11:36:59;;;;;;;1.73;1.30;;;14.00;99.90;;;;;;5084072;28;20451;-24
2021/06/18 11:39:31;;;;;;;1.93;1.50;;;14.00;99.90;;;;;;5080418;28;20452;-26
2021/06/18 11:42:11;;;;;;;2.10;1.57;;;14.00;99.90;;;;;;5082478;28;20513;-23
2021/06/18 11:44:42;;;;;;;1.23;1.13;;;14.00;99.90;;;;;;5074174;28;20980;-23
2021/06/18 11:47:15;;;;;;;1.50;1.40;;;14.00;99.90;;;;;;5083834;28;20475;-26
2021/06/18 11:49:46;;;;;;;1.30;1.20;;;14.00;99.90;;;;;;5083039;28;20471;-22
2021/06/18 11:52:17;;;;;;;1.40;1.30;;;14.00;99.90;;;;;;5081483;28;20513;-22
2021/06/18 11:54:48;;;;;;;1.53;1.43;;;14.00;99.90;;;;;;5075747;28;20444;-22
2021/06/18 11:57:23;;;;;;;1.30;1.23;;;14.00;99.90;;;;;;5083692;28;20482;-22
2021/06/18 11:59:59;;;;;;;2.53;1.47;;;13.90;99.90;;;;;;5083274;28;20460;-23
2021/06/18 12:02:34;;;;;;;3.03;2.07;;;13.90;99.90;;;;;;5083117;28;21036;-23
2021/06/18 12:05:22;;;;;;;1.30;1.17;;;13.90;99.90;;;;;;5083342;28;20505;-24
2021/06/18 12:07:53;;;;;;;1.80;1.30;;;13.90;99.90;;;;;;5083274;28;20443;-23
2021/06/18 12:10:27;;;;;;;1.57;1.23;;;13.90;99.90;;;;;;5080604;28;20461;-22
2021/06/18 12:13:00;;;;;;;2.20;2.00;;;13.90;99.90;;;;;;5083474;28;20483;-25
2021/06/18 12:15:33;;;;;;;1.77;1.30;;;13.90;99.90;;;;;;5082167;28;20444;-25
2021/06/18 12:18:07;;;;;;;1.60;1.30;;;13.90;99.90;;;;;;5083267;28;20436;-25
2021/06/18 12:20:39;;;;;;;3.67;1.50;;;13.90;99.90;;;;;;5077895;28;20447;-23
2021/06/18 12:23:16;;;;;;;1.70;1.60;;;13.90;99.90;;;;;;5077393;28;20490;-22
2021/06/18 12:25:50;;;;;;;2.53;1.63;;;13.90;99.90;;;;;;5081416;28;20540;-25
2021/06/18 12:28:22;;;;;;;1.80;1.47;;;13.90;99.90;;;;;;5082843;28;20453;-22
2021/06/18 12:30:57;;;;;;;1.87;1.40;;;13.90;99.90;;;;;;5082166;28;20444;-22
2021/06/18 12:33:30;;;;;;;2.60;1.70;;;13.80;99.90;;;;;;5077220;28;20497;-23
2021/06/18 12:36:01;;;;;;;1.43;1.33;;;13.80;99.90;;;;;;5081588;28;20570;-23
2021/06/18 12:38:38;;;;;;;3.70;2.40;;;13.90;99.90;;;;;;5077129;28;20451;-22
2021/06/18 12:41:09;;;;;;;2.80;1.70;;;13.90;99.90;;;;;;5074368;28;20454;-22
2021/06/18 12:43:40;;;;;;;2.47;2.10;;;13.80;99.90;;;;;;5078010;28;20455;-22
2021/06/18 12:46:21;;;;;;;1.90;1.70;;;13.90;99.90;;;;;;5082953;28;20518;-22
2021/06/18 12:48:54;;;;;;;2.13;1.70;;;13.90;99.90;;;;;;5081960;28;20460;-22
2021/06/18 12:51:25;;;;;;;2.30;1.70;;;13.80;99.90;;;;;;5081609;28;21225;-21
2021/06/18 12:54:04;;;;;;;1.73;1.63;;;13.90;99.90;;;;;;5081774;28;20832;-26
2021/06/18 12:56:42;;;;;;;1.80;1.70;;;13.90;99.90;;;;;;5083169;28;20454;-24
2021/06/18 12:59:15;;;;;;;2.00;1.90;;;13.90;99.90;;;;;;5082203;28;20451;-22
2021/06/18 13:01:46;;;;;;;1.70;1.60;;;14.00;99.90;;;;;;5082775;28;20455;-25
2021/06/18 13:04:31;;;;;;;6.30;1.90;;;14.00;99.90;;;;;;5078383;28;20455;-23
2021/06/18 13:07:02;;;;;;;3.80;2.43;;;14.00;99.90;;;;;;5083558;28;20487;-22
2021/06/18 13:09:37;;;;;;;7.07;1.93;;;14.00;99.90;;;;;;5080737;28;20501;-22
2021/06/18 13:12:09;;;;;;;2.50;2.10;;;14.00;99.90;;;;;;5062944;28;20523;-22
2021/06/18 13:14:45;;;;;;;5.30;2.00;;;14.00;99.90;;;;;;5067584;28;20452;-23
2021/06/18 13:17:16;;;;;;;2.90;1.93;;;14.10;99.90;;;;;;5070575;28;20520;-23
2021/06/18 13:19:50;;;;;;;3.83;1.90;;;14.10;99.90;;;;;;5074400;28;20456;-22